createdAt,value
2018-06-22T00:01:35.412Z,10.80
2018-06-22T00:04:03.560Z,10.80
2018-06-22T00:06:32.761Z,10.70
2018-06-22T00:09:00.932Z,10.70
2018-06-22T00:11:29.159Z,10.70
2018-06-22T00:13:57.404Z,10.70
2018-06-22T00:16:25.577Z,10.70
2018-06-22T00:18:53.776Z,10.70
2018-06-22T00:21:21.904Z,10.70
2018-06-22T00:23:50.847Z,10.70
2018-06-22T00:26:19.016Z,10.60
2018-06-22T00:28:47.140Z,10.60
2018-06-22T00:31:15.320Z,10.50
2018-06-22T00:33:43.427Z,10.50
2018-06-22T00:36:11.592Z,10.40
2018-06-22T00:38:39.746Z,10.40
2018-06-22T00:41:07.878Z,10.40
2018-06-22T00:43:36.008Z,10.40
2018-06-22T00:46:04.137Z,10.40
2018-06-22T00:48:32.259Z,10.40
2018-06-22T00:51:00.388Z,10.50
2018-06-22T00:53:43.584Z,10.50
2018-06-22T00:56:11.701Z,10.50
2018-06-22T00:58:39.837Z,10.60
2018-06-22T01:01:08.005Z,10.60
2018-06-22T01:03:36.136Z,10.60
2018-06-22T01:06:04.317Z,10.60
2018-06-22T01:08:32.504Z,10.50
2018-06-22T01:11:00.672Z,10.50
2018-06-22T01:13:28.836Z,10.50
2018-06-22T01:15:57.012Z,10.50
2018-06-22T01:18:25.160Z,10.50
2018-06-22T01:20:53.395Z,10.50
2018-06-22T01:23:21.545Z,10.50
2018-06-22T01:25:49.680Z,10.50
2018-06-22T01:28:17.865Z,10.50
2018-06-22T01:30:46.046Z,10.50
2018-06-22T01:33:14.187Z,10.50
2018-06-22T01:35:42.305Z,10.50
2018-06-22T01:38:10.508Z,10.60
2018-06-22T01:40:38.645Z,10.60
2018-06-22T01:43:06.776Z,10.60
2018-06-22T01:45:34.870Z,10.50
2018-06-22T01:48:03.199Z,10.50
2018-06-22T01:50:31.395Z,10.40
2018-06-22T01:52:59.529Z,10.50
2018-06-22T01:55:27.747Z,10.50
2018-06-22T01:57:55.896Z,10.40
2018-06-22T02:00:24.115Z,10.40
2018-06-22T02:02:52.287Z,10.40
2018-06-22T02:05:20.408Z,10.40
2018-06-22T02:07:48.566Z,10.50
2018-06-22T02:10:16.791Z,10.50
2018-06-22T02:12:44.939Z,10.50
2018-06-22T02:15:13.156Z,10.50
2018-06-22T02:17:41.270Z,10.50
2018-06-22T02:20:09.399Z,10.60
2018-06-22T02:22:37.568Z,10.70
2018-06-22T02:25:05.693Z,10.60
2018-06-22T02:27:33.880Z,10.60
2018-06-22T02:30:01.997Z,10.70
2018-06-22T02:32:30.136Z,10.70
2018-06-22T02:34:58.287Z,10.60
2018-06-22T02:37:26.412Z,10.40
2018-06-22T02:39:54.527Z,10.40
2018-06-22T02:42:22.672Z,10.30
2018-06-22T02:44:50.811Z,10.30
2018-06-22T02:47:18.952Z,10.30
2018-06-22T02:49:47.074Z,10.30
2018-06-22T02:52:15.286Z,10.30
2018-06-22T02:54:43.416Z,10.30
2018-06-22T02:57:11.621Z,10.30
2018-06-22T02:59:39.849Z,10.20
2018-06-22T03:02:07.989Z,10.10
2018-06-22T03:04:36.112Z,10.10
2018-06-22T03:07:04.248Z,10.00
2018-06-22T03:09:32.399Z,10.00
2018-06-22T03:12:00.561Z,10.00
2018-06-22T03:14:28.713Z,9.90
2018-06-22T03:16:56.924Z,9.80
2018-06-22T03:19:25.191Z,9.70
2018-06-22T03:21:53.338Z,9.70
2018-06-22T03:24:21.476Z,9.80
2018-06-22T03:26:49.616Z,9.80
2018-06-22T03:29:17.775Z,9.70
2018-06-22T03:31:45.902Z,9.70
2018-06-22T03:34:14.032Z,9.70
2018-06-22T03:36:42.156Z,9.70
2018-06-22T03:39:10.469Z,9.80
2018-06-22T03:41:38.608Z,9.90
2018-06-22T03:44:06.772Z,9.90
2018-06-22T03:46:35.424Z,9.90
2018-06-22T03:49:03.580Z,10.00
2018-06-22T03:51:31.702Z,10.10
2018-06-22T03:53:59.944Z,10.10
2018-06-22T03:56:28.104Z,10.10
2018-06-22T03:58:56.253Z,10.10
2018-06-22T04:01:24.399Z,10.10
2018-06-22T04:03:52.616Z,10.10
2018-06-22T04:06:20.748Z,10.00
2018-06-22T04:08:48.830Z,10.00
2018-06-22T04:11:16.991Z,10.10
2018-06-22T04:13:45.314Z,10.10
2018-06-22T04:16:13.465Z,10.20
2018-06-22T04:18:41.555Z,10.20
2018-06-22T04:21:09.770Z,10.30
2018-06-22T04:23:37.907Z,10.30
2018-06-22T04:26:06.001Z,10.40
2018-06-22T04:28:34.164Z,10.40
2018-06-22T04:31:02.291Z,10.40
2018-06-22T04:33:30.485Z,10.40
2018-06-22T04:35:58.580Z,10.50
2018-06-22T04:38:26.683Z,10.50
2018-06-22T04:40:54.798Z,10.60
2018-06-22T04:43:22.924Z,10.60
2018-06-22T04:45:51.065Z,10.60
2018-06-22T04:48:19.236Z,10.60
2018-06-22T04:50:47.371Z,10.60
2018-06-22T04:53:15.571Z,10.60
2018-06-22T04:55:43.748Z,10.70
2018-06-22T04:58:11.893Z,10.70
2018-06-22T05:00:39.996Z,10.60
2018-06-22T05:03:08.130Z,10.70
2018-06-22T05:05:36.249Z,10.80
2018-06-22T05:08:04.397Z,10.80
2018-06-22T05:10:32.482Z,10.90
2018-06-22T05:13:01.086Z,10.90
2018-06-22T05:15:29.232Z,11.00
2018-06-22T05:17:57.443Z,11.10
2018-06-22T05:20:25.555Z,11.20
2018-06-22T05:22:53.731Z,11.20
2018-06-22T05:25:21.852Z,11.30
2018-06-22T05:27:50.017Z,11.60
2018-06-22T05:30:18.195Z,11.60
2018-06-22T05:32:46.298Z,11.70
2018-06-22T05:35:14.428Z,11.80
2018-06-22T05:37:42.626Z,11.70
2018-06-22T05:40:10.780Z,11.70
2018-06-22T05:42:38.960Z,11.70
2018-06-22T05:45:07.091Z,11.60
2018-06-22T05:47:35.204Z,11.60
2018-06-22T05:50:03.413Z,11.70
2018-06-22T05:52:31.544Z,11.70
2018-06-22T05:54:59.694Z,11.70
2018-06-22T05:57:27.809Z,11.60
2018-06-22T05:59:56.031Z,11.70
2018-06-22T06:02:24.138Z,11.80
2018-06-22T06:04:52.420Z,11.70
2018-06-22T06:07:20.764Z,11.70
2018-06-22T06:09:48.868Z,11.70
2018-06-22T06:12:17.908Z,11.70
2018-06-22T06:14:46.033Z,11.80
2018-06-22T06:17:14.145Z,11.90
2018-06-22T06:19:42.348Z,12.00
2018-06-22T06:22:10.459Z,11.90
2018-06-22T06:24:38.735Z,11.80
2018-06-22T06:27:06.976Z,11.80
2018-06-22T06:29:35.120Z,11.80
2018-06-22T06:32:03.340Z,11.90
2018-06-22T06:34:31.489Z,11.80
2018-06-22T06:36:59.583Z,11.80
2018-06-22T06:39:27.756Z,11.90
2018-06-22T06:41:55.972Z,11.80
2018-06-22T06:44:24.189Z,11.80
2018-06-22T06:46:52.485Z,11.90
2018-06-22T06:49:20.684Z,12.00
2018-06-22T06:51:48.836Z,12.10
2018-06-22T06:54:17.025Z,12.20
2018-06-22T06:56:45.318Z,12.20
2018-06-22T06:59:13.467Z,12.40
2018-06-22T07:01:41.642Z,12.50
2018-06-22T07:04:09.788Z,12.50
2018-06-22T07:06:37.997Z,12.40
2018-06-22T07:09:07.149Z,12.30
2018-06-22T07:11:35.288Z,12.30
2018-06-22T07:14:03.404Z,12.20
2018-06-22T07:16:31.576Z,12.20
2018-06-22T07:18:59.762Z,12.20
2018-06-22T07:21:27.944Z,12.30
2018-06-22T07:23:56.108Z,12.30
2018-06-22T07:26:24.364Z,12.40
2018-06-22T07:28:52.558Z,12.50
2018-06-22T07:31:20.869Z,12.60
2018-06-22T07:33:49.092Z,12.60
2018-06-22T07:36:17.313Z,12.60
2018-06-22T07:38:45.462Z,12.60
2018-06-22T07:43:47.397Z,12.60
2018-06-22T07:46:15.644Z,12.70
2018-06-22T07:48:43.903Z,12.90
2018-06-22T07:51:12.132Z,13.10
2018-06-22T07:53:40.360Z,13.30
2018-06-22T07:56:08.516Z,13.40
2018-06-22T07:58:36.739Z,13.50
2018-06-22T08:01:04.835Z,13.60
2018-06-22T08:03:32.935Z,13.50
2018-06-22T08:06:01.167Z,13.50
2018-06-22T08:08:29.382Z,13.50
2018-06-22T08:10:57.582Z,13.50
2018-06-22T08:13:28.759Z,13.60
2018-06-22T08:15:58.413Z,13.70
2018-06-22T08:18:28.035Z,13.90
2018-06-22T08:21:07.055Z,14.20
2018-06-22T08:23:44.188Z,14.40
2018-06-22T08:26:16.776Z,14.50
2018-06-22T08:28:45.399Z,14.50
2018-06-22T08:31:14.433Z,14.40
2018-06-22T08:33:42.632Z,14.30
2018-06-22T08:36:10.996Z,14.30
2018-06-22T08:38:40.701Z,14.20
2018-06-22T08:41:09.138Z,14.10
2018-06-22T08:43:46.410Z,13.90
2018-06-22T08:46:16.098Z,13.80
2018-06-22T08:48:45.730Z,13.80
2018-06-22T08:51:14.411Z,13.80
2018-06-22T08:53:42.742Z,13.80
2018-06-22T08:56:16.801Z,13.90
2018-06-22T08:58:46.631Z,14.00
2018-06-22T09:01:15.149Z,14.10
2018-06-22T09:03:51.387Z,14.20
2018-06-22T09:06:50.374Z,14.20
2018-06-22T09:09:43.784Z,14.40
2018-06-22T09:12:21.645Z,14.70
2018-06-22T09:14:52.913Z,14.70
2018-06-22T09:17:25.174Z,14.60
2018-06-22T09:20:02.708Z,14.60
2018-06-22T09:22:31.040Z,14.50
2018-06-22T09:24:59.292Z,14.60
2018-06-22T09:27:27.587Z,14.60
2018-06-22T09:29:55.808Z,14.70
2018-06-22T09:32:23.952Z,14.70
2018-06-22T09:34:52.116Z,14.80
2018-06-22T09:37:20.677Z,14.80
2018-06-22T09:39:52.358Z,14.90
2018-06-22T09:42:21.074Z,15.10
2018-06-22T09:44:50.132Z,15.30
2018-06-22T09:47:38.003Z,15.60
2018-06-22T09:50:10.906Z,15.70
2018-06-22T09:52:40.025Z,15.70
2018-06-22T09:55:09.822Z,15.60
2018-06-22T09:57:45.096Z,15.60
2018-06-22T10:00:14.268Z,15.60
2018-06-22T10:05:25.301Z,15.80
2018-06-22T10:08:06.062Z,15.80
2018-06-22T10:10:34.340Z,15.90
2018-06-22T10:18:45.162Z,15.90
2018-06-22T10:21:19.685Z,15.90
2018-06-22T10:24:16.953Z,16.10
2018-06-22T10:26:58.429Z,16.10
2018-06-22T10:29:43.004Z,16.20
2018-06-22T10:32:12.934Z,16.10
2018-06-22T10:35:03.933Z,16.30
2018-06-22T10:37:45.070Z,16.50
2018-06-22T10:40:16.312Z,16.60
2018-06-22T10:42:55.830Z,16.70
2018-06-22T10:45:25.420Z,16.80
2018-06-22T10:48:03.722Z,16.90
2018-06-22T10:50:42.062Z,16.80
2018-06-22T10:53:16.577Z,16.90
2018-06-22T10:55:54.420Z,16.90
2018-06-22T10:58:31.971Z,16.80
2018-06-22T11:01:13.742Z,16.70
2018-06-22T11:06:33.686Z,17.00
2018-06-22T11:09:17.736Z,17.20
2018-06-22T11:11:47.117Z,17.40
2018-06-22T11:14:20.008Z,17.60
2018-06-22T11:16:53.024Z,17.60
2018-06-22T11:19:34.214Z,17.50
2018-06-22T11:22:22.189Z,17.30
2018-06-22T11:25:00.432Z,17.20
2018-06-22T11:27:44.780Z,17.10
2018-06-22T11:36:01.930Z,16.90
2018-06-22T11:38:51.442Z,16.80
2018-06-22T11:41:22.237Z,17.30
2018-06-22T11:44:02.783Z,17.50
2018-06-22T11:46:32.635Z,17.50
2018-06-22T11:49:07.736Z,17.60
2018-06-22T11:51:44.285Z,17.70
2018-06-22T11:56:56.369Z,17.50
2018-06-22T11:59:25.576Z,17.70
2018-06-22T12:02:00.245Z,18.00
2018-06-22T12:04:29.870Z,18.20
2018-06-22T12:07:03.151Z,18.20
2018-06-22T12:09:32.559Z,18.10
2018-06-22T12:12:04.980Z,18.00
2018-06-22T12:14:36.561Z,17.80
2018-06-22T12:17:09.971Z,17.60
2018-06-22T12:19:39.823Z,17.60
2018-06-22T12:22:10.425Z,17.60
2018-06-22T12:24:50.895Z,17.60
2018-06-22T12:27:23.913Z,17.80
2018-06-22T12:29:56.311Z,17.90
2018-06-22T12:32:30.607Z,17.90
2018-06-22T12:35:03.665Z,17.90
2018-06-22T12:37:33.227Z,17.90
2018-06-22T12:40:09.646Z,17.90
2018-06-22T12:42:40.688Z,18.00
2018-06-22T12:45:10.397Z,17.70
2018-06-22T12:47:40.492Z,17.50
2018-06-22T12:50:10.658Z,17.50
2018-06-22T12:52:40.583Z,17.60
2018-06-22T12:55:09.030Z,17.70
2018-06-22T12:57:49.651Z,17.80
2018-06-22T13:00:22.272Z,17.70
2018-06-22T13:02:59.804Z,17.70
2018-06-22T13:05:30.737Z,17.60
2018-06-22T13:08:01.194Z,17.60
2018-06-22T13:13:15.057Z,17.30
2018-06-22T13:15:44.139Z,17.30
2018-06-22T13:18:14.119Z,17.40
2018-06-22T13:20:50.591Z,17.40
2018-06-22T13:23:30.333Z,17.30
2018-06-22T13:26:01.849Z,17.40
2018-06-22T13:28:32.284Z,17.60
2018-06-22T13:31:00.793Z,17.80
2018-06-22T13:33:29.359Z,17.90
2018-06-22T13:36:02.146Z,18.00
2018-06-22T13:38:30.683Z,18.00
2018-06-22T13:41:00.800Z,18.20
2018-06-22T13:43:43.450Z,18.10
2018-06-22T13:46:12.046Z,18.00
2018-06-22T13:48:44.717Z,17.80
2018-06-22T13:51:16.427Z,17.80
2018-06-22T13:53:49.346Z,17.90
2018-06-22T13:56:23.899Z,17.90
2018-06-22T13:59:01.631Z,17.70
2018-06-22T14:01:45.829Z,17.40
2018-06-22T14:04:34.421Z,17.20
2018-06-22T14:09:45.122Z,17.40
2018-06-22T14:12:27.552Z,17.40
2018-06-22T14:15:01.483Z,17.50
2018-06-22T14:17:31.016Z,17.50
2018-06-22T14:20:08.031Z,17.60
2018-06-22T14:22:37.684Z,17.40
2018-06-22T14:27:47.211Z,17.40
2018-06-22T14:33:13.201Z,17.40
2018-06-22T14:35:48.329Z,17.50
2018-06-22T14:38:26.244Z,17.30
2018-06-22T14:46:32.677Z,17.30
2018-06-22T14:49:27.374Z,17.40
2018-06-22T14:54:45.432Z,17.50
2018-06-22T14:57:22.366Z,17.40
2018-06-22T15:00:00.771Z,17.30
2018-06-22T15:02:34.653Z,17.40
2018-06-22T15:05:11.762Z,17.40
2018-06-22T15:07:56.142Z,17.40
2018-06-22T15:10:26.363Z,17.40
2018-06-22T15:12:59.829Z,17.50
2018-06-22T15:15:29.816Z,17.60
2018-06-22T15:17:58.755Z,17.40
2018-06-22T15:20:27.395Z,17.30
2018-06-22T15:23:01.556Z,17.40
2018-06-22T15:25:36.480Z,17.50
2018-06-22T15:28:10.783Z,17.40
2018-06-22T15:30:39.602Z,17.30
2018-06-22T15:33:25.175Z,17.30
2018-06-22T15:36:06.174Z,17.30
2018-06-22T15:38:53.201Z,17.40
2018-06-22T15:41:32.147Z,17.50
2018-06-22T15:44:24.139Z,17.60
2018-06-22T15:47:02.379Z,17.40
2018-06-22T15:49:43.166Z,17.10
2018-06-22T15:54:24.192Z,17.00
2018-06-22T15:56:53.982Z,16.70
2018-06-22T15:59:22.811Z,16.40
2018-06-22T16:01:56.711Z,16.30
2018-06-22T16:04:26.196Z,16.30
2018-06-22T16:07:08.886Z,16.20
2018-06-22T16:09:43.638Z,16.10
2018-06-22T16:12:31.715Z,16.00
2018-06-22T16:15:05.696Z,15.90
2018-06-22T16:20:36.304Z,16.00
2018-06-22T16:23:16.513Z,16.10
2018-06-22T16:28:37.760Z,15.90
2018-06-22T16:31:13.288Z,16.10
2018-06-22T16:33:48.316Z,16.10
2018-06-22T16:36:19.071Z,16.10
2018-06-22T16:38:49.098Z,16.00
2018-06-22T16:41:19.787Z,16.00
2018-06-22T16:43:48.225Z,15.80
2018-06-22T16:46:17.937Z,15.60
2018-06-22T16:48:46.263Z,15.60
2018-06-22T16:51:15.812Z,15.50
2018-06-22T16:53:44.431Z,15.50
2018-06-22T16:56:21.742Z,15.50
2018-06-22T16:58:50.490Z,15.50
2018-06-22T17:01:20.383Z,15.60
2018-06-22T17:03:49.362Z,15.60
2018-06-22T17:06:18.945Z,15.50
2018-06-22T17:08:56.403Z,15.50
2018-06-22T17:11:30.627Z,15.30
2018-06-22T17:14:06.548Z,15.30
2018-06-22T17:16:41.259Z,15.20
2018-06-22T17:19:18.105Z,15.20
2018-06-22T17:21:46.405Z,15.20
2018-06-22T17:24:14.895Z,15.10
2018-06-22T17:26:44.044Z,15.10
2018-06-22T17:29:12.524Z,15.00
2018-06-22T17:31:40.885Z,15.00
2018-06-22T17:34:09.379Z,15.10
2018-06-22T17:36:42.353Z,15.10
2018-06-22T17:39:11.849Z,15.10
2018-06-22T17:41:41.105Z,15.10
2018-06-22T17:44:41.345Z,15.00
2018-06-22T17:47:16.686Z,15.00
2018-06-22T17:49:44.961Z,15.10
2018-06-22T17:52:19.578Z,15.10
2018-06-22T17:54:48.379Z,15.10
2018-06-22T17:57:22.638Z,15.00
2018-06-22T17:59:59.043Z,14.90
2018-06-22T18:02:33.428Z,14.80
2018-06-22T18:05:07.967Z,14.70
2018-06-22T18:07:45.306Z,14.60
2018-06-22T18:10:19.699Z,14.50
2018-06-22T18:12:55.989Z,14.50
2018-06-22T18:18:00.014Z,14.50
2018-06-22T18:20:34.753Z,14.50
2018-06-22T18:23:03.230Z,14.50
2018-06-22T18:25:31.355Z,14.50
2018-06-22T18:27:59.578Z,14.50
2018-06-22T18:30:27.828Z,14.30
2018-06-22T18:32:56.001Z,14.10
2018-06-22T18:35:24.168Z,13.90
2018-06-22T18:37:52.367Z,13.70
2018-06-22T18:40:20.612Z,13.60
2018-06-22T18:42:48.877Z,13.60
2018-06-22T18:45:17.319Z,13.50
2018-06-22T18:47:45.661Z,13.40
2018-06-22T18:50:16.017Z,13.30
2018-06-22T18:52:49.699Z,13.20
2018-06-22T18:55:23.342Z,13.20
2018-06-22T18:57:58.861Z,13.10
2018-06-22T19:00:32.502Z,13.20
2018-06-22T19:03:06.133Z,13.20
2018-06-22T19:05:34.308Z,13.20
2018-06-22T19:08:02.556Z,13.20
2018-06-22T19:10:30.726Z,13.20
2018-06-22T19:12:58.868Z,13.10
2018-06-22T19:15:27.025Z,13.20
2018-06-22T19:17:55.864Z,13.10
2018-06-22T19:20:24.117Z,13.20
2018-06-22T19:22:52.327Z,13.20
2018-06-22T19:25:20.748Z,13.30
2018-06-22T19:27:48.896Z,13.20
2018-06-22T19:30:17.064Z,13.20
2018-06-22T19:32:45.310Z,13.20
2018-06-22T19:35:14.537Z,13.20
2018-06-22T19:37:43.981Z,13.20
2018-06-22T19:40:13.039Z,13.10
2018-06-22T19:42:41.352Z,13.10
2018-06-22T19:45:14.873Z,13.10
2018-06-22T19:47:48.583Z,13.00
2018-06-22T19:50:22.396Z,12.90
2018-06-22T19:52:55.999Z,12.80
2018-06-22T19:55:24.258Z,12.80
2018-06-22T19:57:52.543Z,12.80
2018-06-22T20:00:20.858Z,12.80
2018-06-22T20:02:49.080Z,12.80
2018-06-22T20:05:22.101Z,12.80
2018-06-22T20:15:31.313Z,12.60
2018-06-22T20:18:22.235Z,12.60
2018-06-22T20:21:00.171Z,12.60
2018-06-22T20:23:43.125Z,12.50
2018-06-22T20:56:44.249Z,12.00
2018-06-22T21:01:48.861Z,11.90
2018-06-22T21:04:17.975Z,11.80
2018-06-22T21:06:47.863Z,11.90
2018-06-22T21:09:21.127Z,11.90
2018-06-22T21:13:41.959Z,11.80
2018-06-22T21:29:20.428Z,12.00
2018-06-22T21:31:54.848Z,12.00
2018-06-22T21:34:28.499Z,12.00
2018-06-22T21:37:02.574Z,12.10
2018-06-22T21:39:32.050Z,12.10
2018-06-22T21:42:13.516Z,12.10
2018-06-22T21:47:32.626Z,12.00
2018-06-22T21:58:28.139Z,12.10
2018-06-22T22:01:18.948Z,12.10
2018-06-22T22:06:46.968Z,12.00
2018-06-22T22:09:16.807Z,12.10
2018-06-22T22:11:57.380Z,12.10
2018-06-22T22:14:40.712Z,12.10
2018-06-22T22:17:16.976Z,12.10
2018-06-22T22:19:46.452Z,12.20
2018-06-22T22:25:26.834Z,12.20
2018-06-22T22:27:55.434Z,12.20
2018-06-22T22:31:00.576Z,12.20
2018-06-22T22:33:32.846Z,12.30
2018-06-22T22:36:11.138Z,12.10
2018-06-22T22:38:39.406Z,12.10
2018-06-22T22:41:17.617Z,12.10
2018-06-22T22:43:46.568Z,12.00
2018-06-22T22:46:15.326Z,12.00
2018-06-22T22:48:44.789Z,12.10
2018-06-22T22:51:18.780Z,12.10
2018-06-22T22:53:50.373Z,12.10
2018-06-22T22:56:18.857Z,12.10
2018-06-22T22:58:48.642Z,12.00
2018-06-22T23:01:17.066Z,12.00
2018-06-22T23:03:45.779Z,12.00
2018-06-22T23:06:17.813Z,12.00
2018-06-22T23:08:57.196Z,12.00
2018-06-22T23:11:25.985Z,12.00
2018-06-22T23:14:11.288Z,12.00
2018-06-22T23:16:39.593Z,11.90
2018-06-22T23:19:16.738Z,11.80
2018-06-22T23:21:46.086Z,11.80
2018-06-22T23:24:29.357Z,11.70
2018-06-22T23:27:26.241Z,11.70
2018-06-22T23:30:02.708Z,11.60
2018-06-22T23:32:35.308Z,11.60
2018-06-22T23:35:24.694Z,11.60
2018-06-22T23:40:48.897Z,11.50
2018-06-22T23:43:29.267Z,11.40
2018-06-22T23:49:30.273Z,11.50
2018-06-22T23:52:01.573Z,11.40
2018-06-22T23:54:34.242Z,11.40
2018-06-22T23:57:03.811Z,11.40
2018-06-22T23:59:35.235Z,11.40
